Time;durP1;ratioP1;P1;durP2;ratioP2;P2;SDS_P1;SDS_P2;PMS_P1;PMS_P2;Temp;Humidity;BMP_temperature;BMP_pressure;BME280_temperature;BME280_humidity;BME280_pressure;Samples;Min_cycle;Max_cycle;Signal;HPM_P1;HPM_P2
2022/08/05 00:00:13;;;;;;;10.52;5.32;;;;;;;;;;5056108;28;20036;-77
2022/08/05 00:02:39;;;;;;;11.98;5.10;;;;;;;;;;5055870;28;20040;-77
2022/08/05 00:05:04;;;;;;;5.78;4.45;;;;;;;;;;5054339;28;20025;-75
2022/08/05 00:07:31;;;;;;;6.35;4.35;;;;;;;;;;5056052;28;20055;-75
2022/08/05 00:09:56;;;;;;;9.18;4.80;;;;;;;;;;5056190;28;20021;-75
2022/08/05 00:12:21;;;;;;;12.85;6.32;;;;;;;;;;5056107;28;20422;-75
2022/08/05 00:14:47;;;;;;;17.75;7.88;;;;;;;;;;5055894;28;20401;-75
2022/08/05 00:17:14;;;;;;;18.67;8.48;;;;;;;;;;5055526;28;20487;-75
2022/08/05 00:19:40;;;;;;;13.13;7.68;;;;;;;;;;5055666;28;20444;-75
2022/08/05 00:22:05;;;;;;;21.30;10.10;;;;;;;;;;5056049;28;20040;-75
2022/08/05 00:24:30;;;;;;;14.75;8.27;;;;;;;;;;5055519;28;20024;-75
2022/08/05 00:27:01;;;;;;;15.40;7.90;;;;;;;;;;5054059;28;20032;-76
2022/08/05 00:29:27;;;;;;;17.00;9.00;;;;;;;;;;5055155;28;20424;-76
2022/08/05 00:31:54;;;;;;;18.88;9.50;;;;;;;;;;5055444;28;20033;-76
2022/08/05 00:34:19;;;;;;;19.80;9.35;;;;;;;;;;5055010;28;20064;-75
2022/08/05 00:36:47;;;;;;;14.65;8.45;;;;;;;;;;5055220;28;20033;-76
2022/08/05 00:39:13;;;;;;;12.93;7.63;;;;;;;;;;5055189;28;20032;-75
2022/08/05 00:41:39;;;;;;;9.63;5.75;;;;;;;;;;5055235;28;20021;-75
2022/08/05 00:44:05;;;;;;;8.15;5.07;;;;;;;;;;5055131;28;20021;-75
2022/08/05 00:46:32;;;;;;;7.78;4.60;;;;;;;;;;5054738;28;20493;-76
2022/08/05 00:48:58;;;;;;;6.10;4.13;;;;;;;;;;5054966;28;20373;-76
2022/08/05 00:51:23;;;;;;;6.68;4.75;;;;;;;;;;5054458;28;20033;-76
2022/08/05 00:53:48;;;;;;;6.38;3.95;;;;;;;;;;5055146;28;20461;-76
2022/08/05 00:56:15;;;;;;;4.63;4.07;;;;;;;;;;5055159;28;20029;-76
2022/08/05 00:58:49;;;;;;;4.03;3.63;;;;;;;;;;5055052;28;20021;-76
2022/08/05 01:01:14;;;;;;;4.80;3.88;;;;;;;;;;5055028;28;20025;-76
2022/08/05 01:03:41;;;;;;;6.05;3.40;;;;;;;;;;5053192;28;20159;-76
2022/08/05 01:06:06;;;;;;;4.80;3.92;;;;;;;;;;5054433;28;20029;-76
2022/08/05 01:08:32;;;;;;;4.47;4.07;;;;;;;;;;5054165;28;20021;-76
2022/08/05 01:11:18;;;;;;;4.78;3.95;;;;;;;;;;5054915;28;20037;-76
2022/08/05 01:13:47;;;;;;;5.72;4.20;;;;;;;;;;5054391;28;20037;-75
2022/08/05 01:16:19;;;;;;;4.03;3.63;;;;;;;;;;5053571;28;20021;-76
2022/08/05 01:18:46;;;;;;;3.78;3.47;;;;;;;;;;5054695;28;20116;-75
2022/08/05 01:21:24;;;;;;;3.53;3.22;;;;;;;;;;5053149;28;20017;-74
2022/08/05 01:24:08;;;;;;;5.75;3.75;;;;;;;;;;5054579;28;20466;-75
2022/08/05 01:26:37;;;;;;;5.25;3.90;;;;;;;;;;5052900;28;20104;-73
2022/08/05 01:29:07;;;;;;;4.75;3.60;;;;;;;;;;5054532;28;20065;-73
2022/08/05 01:31:34;;;;;;;4.25;3.33;;;;;;;;;;5054056;28;20057;-74
2022/08/05 01:34:21;;;;;;;3.97;3.60;;;;;;;;;;5054689;28;20100;-74
2022/08/05 01:36:53;;;;;;;5.47;3.38;;;;;;;;;;5054342;28;20036;-74
2022/08/05 01:39:20;;;;;;;3.55;3.17;;;;;;;;;;5054138;28;20117;-74
2022/08/05 01:41:46;;;;;;;3.72;3.42;;;;;;;;;;5053978;28;20028;-75
2022/08/05 01:44:12;;;;;;;4.07;3.67;;;;;;;;;;5052979;28;20037;-75
2022/08/05 01:46:38;;;;;;;3.60;3.35;;;;;;;;;;5054184;28;20417;-75
2022/08/05 01:49:05;;;;;;;3.25;3.05;;;;;;;;;;5054155;28;20124;-75
2022/08/05 01:51:32;;;;;;;4.43;2.88;;;;;;;;;;5053723;28;20037;-75
2022/08/05 01:53:59;;;;;;;4.78;3.08;;;;;;;;;;5054087;28;20017;-76
2022/08/05 01:56:29;;;;;;;3.50;3.20;;;;;;;;;;5054142;28;20029;-76
2022/08/05 01:58:54;;;;;;;3.22;3.03;;;;;;;;;;5052903;28;20542;-76
2022/08/05 02:01:20;;;;;;;4.40;3.00;;;;;;;;;;5053096;28;20028;-75
2022/08/05 02:03:46;;;;;;;2.80;2.60;;;;;;;;;;5053688;28;20024;-74
2022/08/05 02:06:12;;;;;;;3.15;2.85;;;;;;;;;;5053881;28;20021;-74
2022/08/05 02:08:38;;;;;;;3.83;3.33;;;;;;;;;;5054115;28;20064;-75
2022/08/05 02:11:08;;;;;;;3.13;2.88;;;;;;;;;;5053921;28;20432;-75
2022/08/05 02:13:37;;;;;;;3.20;3.00;;;;;;;;;;5053820;28;20021;-74
2022/08/05 02:16:06;;;;;;;5.03;3.17;;;;;;;;;;5053767;28;20059;-73
2022/08/05 02:18:37;;;;;;;2.92;2.63;;;;;;;;;;5053799;28;20033;-73
2022/08/05 02:21:10;;;;;;;3.58;2.85;;;;;;;;;;5057934;28;20021;-72
2022/08/05 02:23:37;;;;;;;5.15;3.38;;;;;;;;;;5056554;28;20143;-73
2022/08/05 02:26:04;;;;;;;3.42;3.13;;;;;;;;;;5058127;28;20102;-73
2022/08/05 02:28:32;;;;;;;3.03;2.55;;;;;;;;;;5056094;28;20057;-73
2022/08/05 02:30:59;;;;;;;3.67;2.75;;;;;;;;;;5057510;28;20104;-73
2022/08/05 02:33:25;;;;;;;4.03;3.25;;;;;;;;;;5056010;28;20021;-73
2022/08/05 02:35:52;;;;;;;3.10;2.90;;;;;;;;;;5056283;28;20012;-76
2022/08/05 02:38:18;;;;;;;3.55;3.05;;;;;;;;;;5057097;28;20083;-75
2022/08/05 02:40:44;;;;;;;3.38;3.17;;;;;;;;;;5057385;28;20026;-75
2022/08/05 02:43:10;;;;;;;5.07;3.40;;;;;;;;;;5056367;28;20037;-74
2022/08/05 02:45:37;;;;;;;3.22;2.80;;;;;;;;;;5057333;28;20025;-75
2022/08/05 02:48:03;;;;;;;3.00;2.80;;;;;;;;;;5057345;28;20429;-75
2022/08/05 02:50:29;;;;;;;2.90;2.80;;;;;;;;;;5057376;28;20095;-74
2022/08/05 02:52:56;;;;;;;4.50;3.03;;;;;;;;;;5057143;28;20389;-74
2022/08/05 02:55:21;;;;;;;7.65;3.35;;;;;;;;;;5057257;28;20029;-72
2022/08/05 02:57:47;;;;;;;4.80;3.17;;;;;;;;;;5057288;28;20032;-73
2022/08/05 03:00:13;;;;;;;5.18;3.15;;;;;;;;;;5057374;28;20468;-73
2022/08/05 03:02:41;;;;;;;3.60;3.28;;;;;;;;;;5057146;28;20093;-72
2022/08/05 03:05:07;;;;;;;5.55;2.97;;;;;;;;;;5057271;28;20013;-73
2022/08/05 03:07:33;;;;;;;2.90;2.70;;;;;;;;;;5057146;28;20032;-74
2022/08/05 03:09:59;;;;;;;5.30;2.90;;;;;;;;;;5057163;28;20025;-73
2022/08/05 03:12:31;;;;;;;4.82;3.22;;;;;;;;;;5057259;28;20036;-73
2022/08/05 03:14:56;;;;;;;7.20;3.13;;;;;;;;;;5057219;28;20025;-73
2022/08/05 03:17:22;;;;;;;3.15;2.95;;;;;;;;;;5055576;28;20028;-73
2022/08/05 03:19:47;;;;;;;4.45;2.90;;;;;;;;;;5055090;28;20025;-73
2022/08/05 03:22:13;;;;;;;3.60;3.30;;;;;;;;;;5056739;28;20021;-73
2022/08/05 03:24:39;;;;;;;4.03;3.15;;;;;;;;;;5056764;28;20059;-73
2022/08/05 03:27:05;;;;;;;9.00;3.83;;;;;;;;;;5056760;28;20360;-73
2022/08/05 03:29:30;;;;;;;3.88;3.00;;;;;;;;;;5056824;28;20124;-74
2022/08/05 03:31:57;;;;;;;2.92;2.65;;;;;;;;;;5055234;28;20104;-74
2022/08/05 03:34:22;;;;;;;8.00;3.63;;;;;;;;;;5056633;28;20040;-73
2022/08/05 03:36:47;;;;;;;3.28;2.97;;;;;;;;;;5056660;28;20021;-73
2022/08/05 03:39:13;;;;;;;3.65;2.88;;;;;;;;;;5054964;28;20032;-73
2022/08/05 03:41:38;;;;;;;3.97;3.28;;;;;;;;;;5056524;28;20017;-73
2022/08/05 03:44:04;;;;;;;3.30;3.00;;;;;;;;;;5056063;28;20504;-69
2022/08/05 03:46:29;;;;;;;3.15;2.95;;;;;;;;;;5056349;28;20074;-71
2022/08/05 03:48:54;;;;;;;4.28;3.13;;;;;;;;;;5054868;28;20450;-71
2022/08/05 03:51:25;;;;;;;4.03;3.10;;;;;;;;;;5037935;28;20041;-71
2022/08/05 03:53:56;;;;;;;5.85;3.25;;;;;;;;;;5056436;28;20028;-70
2022/08/05 03:56:30;;;;;;;4.68;3.30;;;;;;;;;;5056419;28;20571;-70
2022/08/05 03:59:00;;;;;;;3.13;2.92;;;;;;;;;;5054686;28;20048;-71
2022/08/05 04:01:27;;;;;;;2.67;2.57;;;;;;;;;;5056149;28;20033;-71
2022/08/05 04:03:53;;;;;;;4.43;3.28;;;;;;;;;;5055808;28;20273;-71
2022/08/05 04:06:18;;;;;;;3.10;2.88;;;;;;;;;;5056137;28;20103;-70
2022/08/05 04:08:44;;;;;;;4.50;3.40;;;;;;;;;;5055890;28;20124;-71
2022/08/05 04:11:09;;;;;;;3.10;2.90;;;;;;;;;;5055835;28;20023;-70
2022/08/05 04:13:38;;;;;;;3.42;3.10;;;;;;;;;;5055817;28;20017;-71
2022/08/05 04:16:03;;;;;;;2.70;2.60;;;;;;;;;;5038227;28;20039;-71
2022/08/05 04:18:30;;;;;;;4.72;2.97;;;;;;;;;;5055421;28;20497;-71
2022/08/05 04:20:56;;;;;;;2.90;2.60;;;;;;;;;;5055770;28;20036;-71
2022/08/05 04:23:23;;;;;;;3.28;3.08;;;;;;;;;;5055191;28;20036;-71
2022/08/05 04:25:48;;;;;;;2.72;2.53;;;;;;;;;;5055982;28;20080;-71
2022/08/05 04:28:13;;;;;;;4.18;2.65;;;;;;;;;;5055888;28;20496;-71
2022/08/05 04:30:39;;;;;;;3.40;3.10;;;;;;;;;;5055395;28;20029;-71
2022/08/05 04:33:04;;;;;;;2.90;2.72;;;;;;;;;;5054358;28;20074;-71
2022/08/05 04:35:29;;;;;;;2.88;2.67;;;;;;;;;;5055232;28;20017;-71
2022/08/05 04:37:55;;;;;;;2.97;2.70;;;;;;;;;;5054761;28;20033;-71
2022/08/05 04:40:20;;;;;;;2.67;2.47;;;;;;;;;;5055281;28;20024;-70
2022/08/05 04:42:46;;;;;;;2.42;2.33;;;;;;;;;;5055151;28;20464;-70
2022/08/05 04:45:11;;;;;;;2.72;2.53;;;;;;;;;;5054215;28;20021;-71
2022/08/05 04:47:37;;;;;;;2.75;2.53;;;;;;;;;;5053576;28;20029;-70
2022/08/05 04:50:02;;;;;;;5.03;2.88;;;;;;;;;;5053831;28;20461;-71
2022/08/05 04:52:28;;;;;;;4.43;2.92;;;;;;;;;;5052269;28;20045;-71
2022/08/05 04:54:53;;;;;;;4.22;3.10;;;;;;;;;;5054242;28;20497;-71
2022/08/05 04:57:19;;;;;;;2.95;2.75;;;;;;;;;;5054618;28;20029;-70
2022/08/05 04:59:44;;;;;;;3.15;2.88;;;;;;;;;;5054372;28;20013;-71
2022/08/05 05:02:10;;;;;;;3.13;2.83;;;;;;;;;;5053949;28;20082;-70
2022/08/05 05:04:35;;;;;;;5.82;2.97;;;;;;;;;;5054808;28;20432;-70
2022/08/05 05:07:01;;;;;;;3.22;3.03;;;;;;;;;;5054675;28;20036;-70
2022/08/05 05:09:26;;;;;;;3.95;3.03;;;;;;;;;;5054796;28;20021;-70
2022/08/05 05:11:52;;;;;;;3.30;3.00;;;;;;;;;;5054724;28;20040;-71
2022/08/05 05:14:17;;;;;;;3.15;2.88;;;;;;;;;;5054599;28;20021;-70
2022/08/05 05:16:42;;;;;;;3.75;3.45;;;;;;;;;;5054390;28;20465;-72
2022/08/05 05:19:08;;;;;;;3.63;3.08;;;;;;;;;;5054328;28;20032;-70
2022/08/05 05:21:33;;;;;;;3.78;2.92;;;;;;;;;;5054154;28;20082;-70
2022/08/05 05:23:59;;;;;;;3.90;3.00;;;;;;;;;;5053011;28;20020;-70
2022/08/05 05:26:24;;;;;;;7.43;3.42;;;;;;;;;;5053646;28;20544;-70
2022/08/05 05:28:49;;;;;;;3.20;3.00;;;;;;;;;;5053599;28;20067;-70
2022/08/05 05:31:15;;;;;;;3.88;3.22;;;;;;;;;;5053735;28;20441;-70
2022/08/05 05:33:40;;;;;;;3.88;3.13;;;;;;;;;;5052430;28;20021;-70
2022/08/05 05:36:06;;;;;;;4.25;3.33;;;;;;;;;;5053724;28;20029;-70
2022/08/05 05:38:31;;;;;;;3.60;3.30;;;;;;;;;;5052840;28;20096;-70
2022/08/05 05:40:56;;;;;;;5.40;3.38;;;;;;;;;;5051584;28;20094;-70
2022/08/05 05:43:22;;;;;;;3.13;2.92;;;;;;;;;;5052809;28;20028;-70
2022/08/05 05:45:47;;;;;;;3.50;3.13;;;;;;;;;;5052705;28;20170;-70
2022/08/05 05:48:13;;;;;;;3.20;2.90;;;;;;;;;;5052655;28;20159;-70
2022/08/05 05:50:39;;;;;;;3.85;3.10;;;;;;;;;;5052585;28;20053;-70
2022/08/05 05:53:07;;;;;;;3.60;3.15;;;;;;;;;;5051232;28;20108;-70
2022/08/05 05:55:32;;;;;;;3.28;2.97;;;;;;;;;;5052402;28;20392;-70
2022/08/05 05:57:57;;;;;;;3.30;3.10;;;;;;;;;;5051413;28;20026;-70
2022/08/05 06:00:23;;;;;;;5.15;2.90;;;;;;;;;;5052429;28;20040;-70
2022/08/05 06:02:48;;;;;;;4.63;3.10;;;;;;;;;;5052505;28;20017;-70
2022/08/05 06:05:14;;;;;;;3.80;3.00;;;;;;;;;;5052432;28;20435;-70
2022/08/05 06:07:40;;;;;;;3.58;3.30;;;;;;;;;;5052464;28;20095;-70
2022/08/05 06:10:07;;;;;;;4.43;3.22;;;;;;;;;;5052309;28;20028;-70
2022/08/05 06:12:33;;;;;;;4.10;3.17;;;;;;;;;;5052402;28;20471;-70
2022/08/05 06:14:59;;;;;;;3.90;3.38;;;;;;;;;;5052362;28;20112;-70
2022/08/05 06:17:25;;;;;;;4.63;3.33;;;;;;;;;;5052280;28;20075;-70
2022/08/05 06:19:50;;;;;;;3.38;3.17;;;;;;;;;;5052231;28;20021;-70
2022/08/05 06:22:21;;;;;;;5.15;3.17;;;;;;;;;;5052292;28;20100;-70
2022/08/05 06:24:47;;;;;;;4.35;3.53;;;;;;;;;;5052228;28;20047;-70
2022/08/05 06:27:12;;;;;;;4.63;3.00;;;;;;;;;;5052278;28;20033;-70
2022/08/05 06:29:38;;;;;;;4.60;3.53;;;;;;;;;;5052392;28;20030;-71
2022/08/05 06:32:03;;;;;;;3.97;3.38;;;;;;;;;;5052190;28;20017;-70
2022/08/05 06:34:29;;;;;;;3.80;3.30;;;;;;;;;;5052254;28;20112;-70
2022/08/05 06:36:54;;;;;;;3.45;3.15;;;;;;;;;;5052167;28;20095;-70
2022/08/05 06:39:20;;;;;;;4.28;3.25;;;;;;;;;;5050846;28;20132;-71
2022/08/05 06:41:45;;;;;;;3.72;3.22;;;;;;;;;;5052145;28;20024;-71
2022/08/05 06:44:11;;;;;;;3.70;3.40;;;;;;;;;;5050882;28;20112;-71
2022/08/05 06:46:37;;;;;;;2.90;2.70;;;;;;;;;;5052199;28;20083;-70
2022/08/05 06:49:02;;;;;;;4.22;3.30;;;;;;;;;;5051909;28;20033;-71
2022/08/05 06:51:28;;;;;;;3.38;3.17;;;;;;;;;;5051934;28;20045;-70
2022/08/05 06:53:53;;;;;;;3.33;3.13;;;;;;;;;;5052695;28;20412;-70
2022/08/05 06:56:19;;;;;;;3.45;3.20;;;;;;;;;;5053090;28;20049;-70
2022/08/05 06:58:44;;;;;;;4.75;3.58;;;;;;;;;;5051719;28;20029;-70
2022/08/05 07:01:10;;;;;;;3.33;3.13;;;;;;;;;;5053299;28;20021;-70
2022/08/05 07:03:35;;;;;;;3.22;2.95;;;;;;;;;;5053241;28;20028;-70
2022/08/05 07:06:02;;;;;;;6.68;3.08;;;;;;;;;;5055468;28;20104;-69
2022/08/05 07:08:28;;;;;;;4.32;3.30;;;;;;;;;;5055585;28;20025;-69
2022/08/05 07:10:53;;;;;;;3.63;3.17;;;;;;;;;;5055698;28;20070;-69
2022/08/05 07:18:48;;;;;;;2.90;2.70;;;;;;;;;;5055417;28;20078;-69
2022/08/05 07:21:13;;;;;;;3.00;2.70;;;;;;;;;;5056213;28;20100;-69
2022/08/05 07:23:39;;;;;;;3.65;3.45;;;;;;;;;;5055644;28;20186;-69
2022/08/05 07:26:04;;;;;;;4.40;4.00;;;;;;;;;;5053277;28;20024;-69
2022/08/05 07:28:30;;;;;;;4.00;3.70;;;;;;;;;;5054515;28;20170;-69
2022/08/05 07:30:56;;;;;;;4.35;3.90;;;;;;;;;;5055496;28;20028;-69
2022/08/05 07:33:21;;;;;;;4.57;3.45;;;;;;;;;;5055692;28;20197;-69
2022/08/05 07:35:47;;;;;;;4.30;3.90;;;;;;;;;;5055840;28;20056;-69
2022/08/05 07:38:16;;;;;;;6.13;3.85;;;;;;;;;;5056431;28;20021;-69
2022/08/05 07:40:42;;;;;;;4.63;3.25;;;;;;;;;;5054840;28;20475;-69
2022/08/05 07:43:08;;;;;;;4.38;4.00;;;;;;;;;;5056021;28;20037;-69
2022/08/05 07:45:33;;;;;;;6.32;4.10;;;;;;;;;;5056349;28;20070;-69
2022/08/05 07:47:59;;;;;;;6.07;4.10;;;;;;;;;;5055974;28;20029;-69
2022/08/05 07:50:24;;;;;;;5.40;4.40;;;;;;;;;;5055828;28;20422;-70
2022/08/05 07:52:50;;;;;;;4.57;4.22;;;;;;;;;;5056269;28;20048;-69
2022/08/05 07:55:16;;;;;;;3.60;3.30;;;;;;;;;;5056085;28;20028;-69
2022/08/05 07:57:41;;;;;;;3.38;3.15;;;;;;;;;;5054645;28;20036;-69
2022/08/05 08:00:07;;;;;;;4.57;4.20;;;;;;;;;;5054632;28;20017;-69
2022/08/05 08:02:37;;;;;;;4.55;4.25;;;;;;;;;;5056069;28;20033;-69
2022/08/05 08:05:02;;;;;;;5.22;4.38;;;;;;;;;;5055896;28;20028;-69
2022/08/05 08:07:28;;;;;;;4.78;4.45;;;;;;;;;;5055922;28;20453;-70
2022/08/05 08:09:53;;;;;;;5.10;4.70;;;;;;;;;;5054179;28;20050;-69
2022/08/05 08:12:19;;;;;;;5.25;3.95;;;;;;;;;;5054236;28;20032;-69
2022/08/05 08:14:44;;;;;;;5.07;4.40;;;;;;;;;;5055565;28;20481;-69
2022/08/05 08:17:10;;;;;;;5.07;4.57;;;;;;;;;;5054573;28;20035;-69
2022/08/05 08:19:39;;;;;;;6.90;5.20;;;;;;;;;;5054104;28;20389;-69
2022/08/05 08:22:06;;;;;;;4.50;4.05;;;;;;;;;;5055387;28;20086;-69
2022/08/05 08:24:31;;;;;;;4.95;4.63;;;;;;;;;;5055279;28;20021;-69
2022/08/05 08:26:57;;;;;;;5.30;4.90;;;;;;;;;;5055177;28;20434;-69
2022/08/05 08:29:22;;;;;;;5.20;4.78;;;;;;;;;;5053909;28;20028;-69
2022/08/05 08:31:48;;;;;;;5.88;4.38;;;;;;;;;;5055076;28;20025;-69
2022/08/05 08:34:13;;;;;;;4.72;4.43;;;;;;;;;;5055048;28;20023;-69
2022/08/05 08:36:39;;;;;;;4.60;4.20;;;;;;;;;;5054986;28;20389;-69
2022/08/05 08:39:04;;;;;;;3.70;3.40;;;;;;;;;;5054968;28;20033;-69
2022/08/05 08:41:32;;;;;;;5.63;3.63;;;;;;;;;;5053589;28;20032;-69
2022/08/05 08:43:58;;;;;;;5.13;4.72;;;;;;;;;;5055178;28;20096;-69
2022/08/05 08:46:26;;;;;;;5.88;3.45;;;;;;;;;;5053569;28;20040;-69
2022/08/05 08:48:52;;;;;;;5.28;3.85;;;;;;;;;;5054764;28;20032;-69
2022/08/05 08:51:19;;;;;;;4.32;3.85;;;;;;;;;;5052207;28;20386;-69
2022/08/05 08:53:44;;;;;;;4.97;4.68;;;;;;;;;;5053694;28;20033;-69
2022/08/05 08:56:10;;;;;;;4.93;4.63;;;;;;;;;;5053827;28;20079;-69
2022/08/05 08:58:35;;;;;;;4.95;4.65;;;;;;;;;;5053564;28;20025;-69
2022/08/05 09:01:01;;;;;;;5.50;5.10;;;;;;;;;;5053475;28;20025;-69
2022/08/05 09:03:27;;;;;;;5.45;4.95;;;;;;;;;;5053443;28;20025;-68
2022/08/05 09:05:52;;;;;;;5.63;5.18;;;;;;;;;;5053401;28;20021;-68
2022/08/05 09:08:18;;;;;;;5.55;5.10;;;;;;;;;;5052007;28;20082;-69
2022/08/05 09:10:43;;;;;;;5.07;4.82;;;;;;;;;;5053200;28;20021;-70
2022/08/05 09:13:12;;;;;;;5.28;4.88;;;;;;;;;;5053535;28;20094;-70
2022/08/05 09:15:38;;;;;;;4.07;3.45;;;;;;;;;;5053519;28;20058;-69
2022/08/05 09:18:05;;;;;;;4.80;4.50;;;;;;;;;;5053196;28;20480;-69
2022/08/05 09:20:30;;;;;;;5.22;4.80;;;;;;;;;;5053143;28;20025;-70
2022/08/05 09:23:07;;;;;;;5.82;5.15;;;;;;;;;;5052972;28;20370;-69
2022/08/05 09:25:33;;;;;;;5.95;5.40;;;;;;;;;;5052969;28;20033;-71
2022/08/05 09:28:11;;;;;;;6.65;4.70;;;;;;;;;;5053013;28;20017;-70
2022/08/05 09:30:37;;;;;;;5.53;5.13;;;;;;;;;;5052876;28;20119;-70
2022/08/05 09:33:02;;;;;;;5.80;5.30;;;;;;;;;;5052938;28;20098;-70
2022/08/05 09:35:28;;;;;;;5.68;5.22;;;;;;;;;;5052933;28;20021;-70
2022/08/05 09:37:54;;;;;;;5.18;4.85;;;;;;;;;;5052852;28;20432;-70
2022/08/05 09:40:30;;;;;;;5.18;4.78;;;;;;;;;;5052772;28;20535;-70
2022/08/05 09:42:56;;;;;;;5.18;4.78;;;;;;;;;;5052769;28;20395;-70
2022/08/05 09:45:32;;;;;;;4.85;4.55;;;;;;;;;;5051537;28;20021;-70
2022/08/05 09:47:58;;;;;;;4.70;4.40;;;;;;;;;;5052661;28;20033;-70
2022/08/05 09:50:33;;;;;;;4.50;4.20;;;;;;;;;;5051352;28;20520;-70
2022/08/05 09:52:58;;;;;;;4.35;4.07;;;;;;;;;;5051208;28;20447;-70
2022/08/05 09:55:24;;;;;;;4.07;3.85;;;;;;;;;;5051361;28;20029;-69
2022/08/05 09:57:49;;;;;;;4.35;3.70;;;;;;;;;;5052552;28;20021;-69
2022/08/05 10:00:19;;;;;;;4.45;4.15;;;;;;;;;;5051228;28;20036;-70
2022/08/05 10:02:53;;;;;;;4.22;3.85;;;;;;;;;;5052493;28;20021;-70
2022/08/05 10:05:20;;;;;;;3.40;3.10;;;;;;;;;;5052505;28;20036;-70
2022/08/05 10:07:48;;;;;;;3.33;3.13;;;;;;;;;;5052457;28;20377;-70
2022/08/05 10:10:14;;;;;;;3.28;3.10;;;;;;;;;;5052326;28;20461;-70
2022/08/05 10:12:43;;;;;;;3.60;3.40;;;;;;;;;;5052432;28;20028;-70
2022/08/05 10:15:13;;;;;;;3.20;3.00;;;;;;;;;;5052365;28;20029;-70
2022/08/05 10:17:38;;;;;;;4.05;3.85;;;;;;;;;;5052346;28;20021;-70
2022/08/05 10:20:04;;;;;;;4.45;4.10;;;;;;;;;;5051262;28;20033;-70
2022/08/05 10:22:29;;;;;;;4.10;3.60;;;;;;;;;;5052299;28;20029;-70
2022/08/05 10:24:55;;;;;;;3.17;2.97;;;;;;;;;;5052222;28;20055;-70
2022/08/05 10:27:20;;;;;;;3.58;3.38;;;;;;;;;;5050952;28;20108;-70
2022/08/05 10:29:46;;;;;;;3.50;3.05;;;;;;;;;;5052124;28;20488;-70
2022/08/05 10:32:11;;;;;;;3.28;3.08;;;;;;;;;;5050940;28;20049;-70
2022/08/05 10:34:37;;;;;;;3.50;3.25;;;;;;;;;;5052130;28;20033;-70
2022/08/05 10:37:03;;;;;;;4.00;3.80;;;;;;;;;;5052092;28;20020;-70
2022/08/05 10:39:34;;;;;;;4.00;3.60;;;;;;;;;;5052064;28;20078;-70
2022/08/05 10:42:01;;;;;;;3.03;2.90;;;;;;;;;;5056063;28;20033;-70
2022/08/05 10:44:28;;;;;;;2.95;2.75;;;;;;;;;;5056076;28;20032;-70
2022/08/05 10:46:54;;;;;;;3.25;3.05;;;;;;;;;;5054719;28;20057;-70
2022/08/05 10:49:24;;;;;;;5.13;4.40;;;;;;;;;;5055972;28;20228;-70
2022/08/05 10:51:56;;;;;;;4.15;3.85;;;;;;;;;;5055571;28;20049;-70
2022/08/05 10:54:22;;;;;;;4.45;4.15;;;;;;;;;;5055928;28;20029;-69
2022/08/05 10:56:49;;;;;;;4.55;4.25;;;;;;;;;;5055912;28;20041;-69
2022/08/05 10:59:16;;;;;;;4.50;4.20;;;;;;;;;;5055802;28;20498;-70
2022/08/05 11:01:43;;;;;;;3.95;3.55;;;;;;;;;;5055904;28;20025;-68
2022/08/05 11:04:13;;;;;;;4.00;3.70;;;;;;;;;;5055769;28;20025;-68
2022/08/05 11:07:03;;;;;;;4.03;3.83;;;;;;;;;;5055653;28;20116;-69
2022/08/05 11:09:48;;;;;;;3.70;3.45;;;;;;;;;;5055548;28;20033;-70
2022/08/05 11:12:23;;;;;;;4.53;4.20;;;;;;;;;;5055569;28;20119;-67
2022/08/05 11:15:04;;;;;;;4.60;4.20;;;;;;;;;;5055523;28;20017;-70
2022/08/05 11:17:31;;;;;;;5.03;4.60;;;;;;;;;;5055500;28;20060;-70
2022/08/05 11:19:58;;;;;;;4.60;4.30;;;;;;;;;;5054471;28;20449;-70
2022/08/05 11:22:40;;;;;;;3.50;3.30;;;;;;;;;;5055293;28;20396;-70
2022/08/05 11:25:24;;;;;;;3.45;3.25;;;;;;;;;;5055315;28;20473;-69
2022/08/05 11:27:50;;;;;;;3.58;3.38;;;;;;;;;;5055289;28;20108;-69
2022/08/05 11:30:15;;;;;;;4.53;4.13;;;;;;;;;;5055194;28;20105;-69
2022/08/05 11:32:41;;;;;;;4.47;4.05;;;;;;;;;;5053942;28;20025;-69
2022/08/05 11:35:06;;;;;;;3.50;3.17;;;;;;;;;;5054010;28;20021;-68
2022/08/05 11:37:41;;;;;;;3.97;3.67;;;;;;;;;;5053794;28;20025;-69
2022/08/05 11:40:07;;;;;;;3.67;3.38;;;;;;;;;;5055037;28;20040;-69
2022/08/05 11:42:33;;;;;;;4.57;4.18;;;;;;;;;;5053749;28;20021;-69
2022/08/05 11:45:02;;;;;;;4.20;4.00;;;;;;;;;;5054926;28;20059;-69
2022/08/05 11:47:29;;;;;;;4.18;3.97;;;;;;;;;;5054959;28;20151;-69
2022/08/05 11:49:59;;;;;;;4.43;4.13;;;;;;;;;;5054778;28;20021;-70
2022/08/05 11:52:25;;;;;;;4.90;3.88;;;;;;;;;;5053462;28;20508;-70
2022/08/05 11:54:52;;;;;;;3.70;3.50;;;;;;;;;;5054789;28;20028;-70
2022/08/05 11:57:17;;;;;;;4.38;4.07;;;;;;;;;;5054760;28;20024;-70
2022/08/05 11:59:43;;;;;;;3.50;3.30;;;;;;;;;;5054715;28;20473;-69
2022/08/05 12:02:09;;;;;;;4.60;4.20;;;;;;;;;;5053460;28;20465;-69
2022/08/05 12:04:39;;;;;;;4.57;3.92;;;;;;;;;;5054597;28;20025;-70
2022/08/05 12:07:09;;;;;;;5.47;3.20;;;;;;;;;;5054558;28;20497;-69
2022/08/05 12:09:38;;;;;;;3.50;3.30;;;;;;;;;;5054385;28;20111;-70
2022/08/05 12:12:05;;;;;;;3.25;3.05;;;;;;;;;;5052935;28;20032;-69
2022/08/05 12:14:37;;;;;;;4.30;4.10;;;;;;;;;;5054428;28;20021;-69
2022/08/05 12:17:10;;;;;;;3.85;3.65;;;;;;;;;;5054343;28;20021;-69
2022/08/05 12:19:42;;;;;;;4.50;4.20;;;;;;;;;;5054293;28;20071;-69
2022/08/05 12:22:07;;;;;;;4.40;4.10;;;;;;;;;;5054268;28;20082;-70
2022/08/05 12:24:33;;;;;;;6.35;3.70;;;;;;;;;;5054262;28;20017;-69
2022/08/05 12:26:59;;;;;;;4.18;3.88;;;;;;;;;;5054150;28;20033;-70
2022/08/05 12:29:26;;;;;;;4.22;3.72;;;;;;;;;;5054068;28;20438;-69
2022/08/05 12:31:52;;;;;;;4.05;3.58;;;;;;;;;;5054300;28;20021;-69
2022/08/05 12:34:18;;;;;;;4.00;3.58;;;;;;;;;;5054021;28;20024;-69
2022/08/05 12:36:45;;;;;;;4.55;4.15;;;;;;;;;;5053952;28;20021;-69
2022/08/05 12:39:10;;;;;;;4.45;4.10;;;;;;;;;;5053974;28;20017;-69
2022/08/05 12:41:37;;;;;;;4.10;3.90;;;;;;;;;;5052625;28;20100;-70
2022/08/05 12:44:12;;;;;;;4.10;3.90;;;;;;;;;;5053944;28;20067;-70
2022/08/05 12:46:38;;;;;;;4.18;3.45;;;;;;;;;;5053749;28;20029;-70
2022/08/05 12:49:04;;;;;;;3.60;3.40;;;;;;;;;;5053654;28;20025;-64
2022/08/05 12:51:32;;;;;;;4.13;3.83;;;;;;;;;;5054352;28;20037;-73
2022/08/05 12:53:59;;;;;;;4.70;3.75;;;;;;;;;;5055302;28;20037;-73
2022/08/05 12:56:25;;;;;;;3.83;3.63;;;;;;;;;;5055001;28;20060;-73
2022/08/05 12:59:09;;;;;;;4.45;4.15;;;;;;;;;;5054944;28;20017;-73
2022/08/05 13:01:35;;;;;;;4.00;3.70;;;;;;;;;;5054862;28;20029;-73
2022/08/05 13:04:02;;;;;;;3.95;3.75;;;;;;;;;;5054859;28;20025;-72
2022/08/05 13:06:28;;;;;;;4.22;3.92;;;;;;;;;;5054505;28;20033;-72
2022/08/05 13:08:53;;;;;;;4.05;3.75;;;;;;;;;;5053531;28;20024;-72
2022/08/05 13:11:22;;;;;;;3.65;3.38;;;;;;;;;;5054573;28;20033;-73
2022/08/05 13:13:48;;;;;;;3.72;3.35;;;;;;;;;;5054686;28;20017;-73
2022/08/05 13:16:14;;;;;;;3.65;3.40;;;;;;;;;;5054321;28;20104;-73
2022/08/05 13:18:49;;;;;;;3.97;3.60;;;;;;;;;;5054745;28;20088;-73
2022/08/05 13:21:14;;;;;;;4.03;3.72;;;;;;;;;;5054265;28;20037;-73
2022/08/05 13:23:40;;;;;;;3.97;3.60;;;;;;;;;;5054211;28;20381;-73
2022/08/05 13:26:06;;;;;;;3.70;3.38;;;;;;;;;;5054113;28;20158;-72
2022/08/05 13:28:31;;;;;;;3.97;3.65;;;;;;;;;;5054661;28;20021;-72
2022/08/05 13:30:56;;;;;;;3.00;2.80;;;;;;;;;;5054251;28;20111;-72
2022/08/05 13:33:22;;;;;;;4.50;3.00;;;;;;;;;;5054042;28;20384;-70
2022/08/05 13:35:47;;;;;;;3.85;3.08;;;;;;;;;;5054756;28;20029;-69
2022/08/05 13:38:12;;;;;;;3.35;3.10;;;;;;;;;;5054241;28;20009;-68
2022/08/05 13:40:38;;;;;;;4.93;3.90;;;;;;;;;;5036122;28;20060;-69
2022/08/05 13:43:03;;;;;;;3.70;3.45;;;;;;;;;;5054525;28;20021;-70
2022/08/05 13:45:28;;;;;;;3.85;3.45;;;;;;;;;;5053703;28;20366;-70
2022/08/05 13:47:54;;;;;;;3.67;3.47;;;;;;;;;;5053703;28;20017;-70
2022/08/05 13:50:19;;;;;;;3.38;3.17;;;;;;;;;;5052599;28;20060;-70
2022/08/05 13:52:45;;;;;;;3.47;3.25;;;;;;;;;;5053532;28;20080;-69
2022/08/05 13:55:10;;;;;;;3.22;2.95;;;;;;;;;;5052543;28;20037;-69
2022/08/05 13:57:36;;;;;;;3.30;3.20;;;;;;;;;;5054247;28;20025;-70
2022/08/05 14:00:02;;;;;;;2.85;2.75;;;;;;;;;;5053856;28;20077;-70
2022/08/05 14:02:34;;;;;;;3.17;3.08;;;;;;;;;;5053850;28;20090;-73
2022/08/05 14:05:14;;;;;;;3.15;2.95;;;;;;;;;;5053516;28;20029;-73
2022/08/05 14:07:40;;;;;;;4.07;3.43;;;;;;;;;;5052230;28;20400;-73
2022/08/05 14:10:13;;;;;;;3.30;3.10;;;;;;;;;;5053763;28;20524;-73
2022/08/05 14:12:39;;;;;;;3.00;2.90;;;;;;;;;;5053454;28;20457;-73
2022/08/05 14:15:05;;;;;;;3.38;3.08;;;;;;;;;;5053072;28;20025;-76
2022/08/05 14:17:31;;;;;;;2.78;2.58;;;;;;;;;;5052217;28;20055;-69
2022/08/05 14:19:56;;;;;;;2.60;2.50;;;;;;;;;;5052673;28;20369;-69
2022/08/05 14:22:21;;;;;;;2.97;2.83;;;;;;;;;;5053678;28;20040;-71
2022/08/05 14:24:47;;;;;;;2.90;2.70;;;;;;;;;;5053355;28;20029;-71
2022/08/05 14:27:12;;;;;;;3.20;3.00;;;;;;;;;;5052343;28;20419;-71
2022/08/05 14:29:38;;;;;;;3.08;2.97;;;;;;;;;;5052305;28;20021;-69
2022/08/05 14:32:03;;;;;;;3.40;2.90;;;;;;;;;;5053264;28;20025;-68
2022/08/05 14:34:29;;;;;;;2.97;2.88;;;;;;;;;;5053541;28;20013;-68
2022/08/05 14:36:54;;;;;;;3.17;2.97;;;;;;;;;;5051988;28;20033;-68
2022/08/05 14:39:20;;;;;;;3.17;2.63;;;;;;;;;;5053516;28;20056;-68
2022/08/05 14:41:45;;;;;;;2.70;2.55;;;;;;;;;;5051903;28;20048;-68
2022/08/05 14:44:10;;;;;;;3.28;3.08;;;;;;;;;;5053192;28;20024;-68
2022/08/05 14:46:36;;;;;;;3.38;3.08;;;;;;;;;;5053132;28;20025;-68